Air Navigation Services of Czech Republic
Airport: LKMT Updated:  22.04.2021 16:45:25  UTC
 METAR LKMT 22.04. 16:30 ...
METAR LKMT 221630Z 02011KT 9999 FEW037TCU SCT046 07/04 Q1017 NOSIG RMK REG QNH 1015=
 TAF LKMT 22.04. 11:00 AAA
TAF AMD LKMT 221549Z 2215/2318 21004KT 9999 SCT040      PROB30 TEMPO 2215/2217 7000 -TSRA SCT030CB      TEMPO 2307/2318 -SHRA BKN027      BECMG 2310/2313 33012KT=